Terminal Aerodrome Forecast
Issued by NWS Wilmington, OH

Home | Current Version | Previous Version | Text Only | Print | Product List | Glossary On
Versions: 1 2 3 4 5 6 7 8 9 10 11 12 13 14 15 16 17 18 19 20 21 22 23 24 25
000
FTUS41 KILN 031700
TAFILN
TAF
KILN 031737Z 0318/0418 10007KT 4SM HZ OVC025
     FM032000 07006KT P6SM BKN035
     FM032300 08005KT P6SM SCT035 SCT150
     FM040800 10003KT 3SM BR SCT150
     FM041000 VRB02KT 1SM BR SCT250
      TEMPO 0410/0412 1/4SM FG VV001
     FM041300 00000KT 2SM BR SCT250
     FM041400 VRB02KT 4SM BR SCT250
     FM041500 VRB02KT P6SM SCT035
     FM041600 VRB03KT P6SM BKN040=

USA.gov is the U.S. government's official web portal to all federal, state and local government web resources and services.